メインページ
METAR-TAF:

METAR-TAF

空港 :

NWS Office

マジュロ, マーシャル諸島

緯度: 07-05N, 経度: 171-12E, 海抜: 4m

現時点の気象観測

当レポートは52分前の10:51(UTC)に作成
の風 10kt
気温 29°C
湿度 74%
気圧 1011 hPa
視程: 24.1km
高度1500ftの雲はほとんどない
高度30000ftの曇り

METAR: PKMR 181051Z 08010KT 15SM FEW015 OVC300 29/24 A2986 RMK SLP112 T02870239

時間: 23:43 (11:43 UTC)


TAF: 見つかりません

4,000以上の空港の気象観測と天気予報(METAR報とTAF報)

利用可能な観測所は地図上に黄色い丸と赤い丸で示す。

丸の上にカーソルを重ねると観測所名を参照できる。

次にクリックすると気象観測と天気予報を参照できる。

マップの切り替え:黒色「×」印の緑ボタンをクリックして拡大、「-」印の緑ボタンをクリックして縮小、緑色の三角印をクリックして隣りの地図に切り替え


METAR-TAF: